Time;durP1;ratioP1;P1;durP2;ratioP2;P2;SDS_P1;SDS_P2;PMS_P1;PMS_P2;Temp;Humidity;BMP_temperature;BMP_pressure;BME280_temperature;BME280_humidity;BME280_pressure;Samples;Min_cycle;Max_cycle;Signal;HPM_P1;HPM_P2
2022/03/28 00:00:44;;;;;;;;;;;13.10;99.90;;;;;;5088909;28;19931;-62
2022/03/28 00:03:12;;;;;;;;;;;13.10;99.90;;;;;;5090883;28;20427;-62
2022/03/28 00:05:40;;;;;;;;;;;13.10;99.90;;;;;;5091090;28;19924;-64
2022/03/28 00:08:08;;;;;;;;;;;13.10;99.90;;;;;;5092285;28;20039;-63
2022/03/28 00:10:35;;;;;;;;;;;13.00;99.90;;;;;;5094629;28;20014;-63
2022/03/28 00:13:03;;;;;;;;;;;13.10;99.90;;;;;;5095346;28;19931;-64
2022/03/28 00:15:31;;;;;;;;;;;13.10;99.90;;;;;;5094464;28;19927;-63
2022/03/28 00:18:01;;;;;;;;;;;13.10;99.90;;;;;;5092695;28;19964;-63
2022/03/28 00:20:29;;;;;;;;;;;13.10;99.90;;;;;;5094506;28;19954;-64
2022/03/28 00:22:57;;;;;;;;;;;13.10;99.90;;;;;;5090819;28;19978;-63
2022/03/28 00:25:25;;;;;;;;;;;13.10;99.90;;;;;;5087402;28;20010;-64
2022/03/28 00:27:52;;;;;;;;;;;13.20;99.90;;;;;;5093309;28;20023;-64
2022/03/28 00:30:20;;;;;;;;;;;13.00;99.90;;;;;;5092758;28;20019;-64
2022/03/28 00:32:48;;;;;;;;;;;13.00;99.90;;;;;;5092375;28;20011;-63
2022/03/28 00:35:17;;;;;;;;;;;12.90;99.90;;;;;;5086931;28;19955;-63
2022/03/28 00:37:45;;;;;;;;;;;12.80;99.90;;;;;;5093982;28;20019;-63
2022/03/28 00:40:13;;;;;;;;;;;12.80;99.90;;;;;;5094019;28;19966;-63
2022/03/28 00:42:42;;;;;;;;;;;12.80;99.90;;;;;;5074225;28;19924;-63
2022/03/28 00:45:10;;;;;;;;;;;12.80;99.90;;;;;;5091718;28;19967;-64
2022/03/28 00:47:38;;;;;;;;;;;12.80;99.90;;;;;;5093206;28;19955;-63
2022/03/28 00:50:06;;;;;;;;;;;12.90;99.90;;;;;;5084992;28;20219;-63
2022/03/28 00:52:35;;;;;;;;;;;12.90;99.90;;;;;;5091074;28;20511;-63
2022/03/28 00:55:04;;;;;;;;;;;13.00;99.90;;;;;;5086292;28;20011;-64
2022/03/28 00:57:32;;;;;;;;;;;13.00;99.90;;;;;;5093635;28;19963;-63
2022/03/28 01:00:00;;;;;;;;;;;12.90;99.90;;;;;;5089391;28;20308;-62
2022/03/28 01:02:28;;;;;;;;;;;12.90;99.90;;;;;;5075293;28;19924;-62
2022/03/28 01:04:57;;;;;;;;;;;12.90;99.90;;;;;;5092041;28;19974;-63
2022/03/28 01:07:26;;;;;;;;;;;13.00;99.90;;;;;;5086161;28;20014;-63
2022/03/28 01:09:55;;;;;;;;;;;13.00;99.90;;;;;;5092651;28;19924;-63
2022/03/28 01:12:24;;;;;;;;;;;13.00;99.90;;;;;;5092072;28;19930;-63
2022/03/28 01:14:52;;;;;;;;;;;12.90;99.90;;;;;;5091815;28;19925;-63
2022/03/28 01:20:06;;;;;;;;;;;12.70;99.90;;;;;;5090627;28;19967;-62
2022/03/28 01:22:35;;;;;;;;;;;12.60;99.90;;;;;;5091995;28;20047;-63
2022/03/28 01:25:04;;;;;;;;;;;12.60;99.90;;;;;;5085378;28;19924;-63
2022/03/28 01:27:31;;;;;;;;;;;12.60;99.90;;;;;;5091240;28;19924;-62
2022/03/28 01:29:59;;;;;;;;;;;12.60;99.90;;;;;;5088874;28;19971;-62
2022/03/28 01:32:27;;;;;;;;;;;12.60;99.90;;;;;;5088395;28;20396;-63
2022/03/28 01:34:55;;;;;;;;;;;12.50;99.90;;;;;;5088916;28;20464;-62
2022/03/28 01:37:22;;;;;;;;;;;12.50;99.90;;;;;;5090675;28;20412;-63
2022/03/28 01:39:51;;;;;;;;;;;12.40;99.90;;;;;;5090339;28;20006;-63
2022/03/28 01:42:19;;;;;;;;;;;12.40;99.90;;;;;;5091839;28;20043;-63
2022/03/28 01:44:49;;;;;;;;;;;12.40;99.90;;;;;;5089823;28;19970;-64
2022/03/28 01:47:17;;;;;;;;;;;12.30;99.90;;;;;;5087719;28;20352;-62
2022/03/28 01:49:45;;;;;;;;;;;12.20;99.90;;;;;;5091884;28;20015;-62
2022/03/28 01:52:13;;;;;;;;;;;12.30;99.90;;;;;;5090923;28;20019;-62
2022/03/28 01:54:40;;;;;;;;;;;12.00;99.90;;;;;;5085420;28;19959;-62
2022/03/28 01:57:12;;;;;;;;;;;12.00;99.90;;;;;;5089784;28;20007;-62
2022/03/28 01:59:40;;;;;;;;;;;12.00;99.90;;;;;;5090946;28;20064;-62
2022/03/28 02:02:08;;;;;;;;;;;11.90;99.90;;;;;;5090737;28;19947;-63
2022/03/28 02:04:35;;;;;;;;;;;11.80;99.90;;;;;;5091707;28;20462;-62
2022/03/28 02:07:03;;;;;;;;;;;11.90;99.90;;;;;;5086507;28;20485;-63
2022/03/28 02:09:31;;;;;;;;;;;11.90;99.90;;;;;;5091598;28;20011;-63
2022/03/28 02:11:59;;;;;;;;;;;11.90;99.90;;;;;;5090173;28;20014;-62
2022/03/28 02:14:28;;;;;;;;;;;11.90;99.90;;;;;;5091656;28;19949;-63
2022/03/28 02:16:55;;;;;;;;;;;12.00;99.90;;;;;;5088368;28;19971;-62
2022/03/28 02:19:23;;;;;;;;;;;12.10;99.90;;;;;;5091391;28;19924;-62
2022/03/28 02:21:51;;;;;;;;;;;12.00;99.90;;;;;;5091264;28;19959;-62
2022/03/28 02:24:19;;;;;;;;;;;12.00;99.90;;;;;;5088174;28;20016;-62
2022/03/28 02:26:46;;;;;;;;;;;12.10;99.90;;;;;;5090350;28;20354;-63
2022/03/28 02:29:14;;;;;;;;;;;12.00;99.90;;;;;;5091982;28;20468;-62
2022/03/28 02:31:43;;;;;;;;;;;12.10;99.90;;;;;;5090608;28;19970;-62
2022/03/28 02:34:11;;;;;;;;;;;12.00;99.90;;;;;;5089496;28;19974;-62
2022/03/28 02:36:39;;;;;;;;;;;11.90;99.90;;;;;;5084132;28;20114;-62
2022/03/28 02:39:07;;;;;;;;;;;11.90;99.90;;;;;;5088799;28;20024;-62
2022/03/28 02:41:34;;;;;;;;;;;11.70;99.90;;;;;;5089833;28;20011;-63
2022/03/28 02:44:02;;;;;;;;;;;11.60;99.90;;;;;;5089990;28;20026;-62
2022/03/28 02:46:30;;;;;;;;;;;11.60;99.90;;;;;;5089157;28;19968;-63
2022/03/28 02:48:59;;;;;;;;;;;11.60;99.90;;;;;;5090858;28;19925;-63
2022/03/28 02:51:26;;;;;;;;;;;11.50;99.90;;;;;;5087960;28;19994;-63
2022/03/28 02:53:54;;;;;;;;;;;11.50;99.90;;;;;;5082661;28;20015;-63
2022/03/28 02:56:22;;;;;;;;;;;11.50;99.90;;;;;;5085110;28;19967;-62
2022/03/28 02:58:49;;;;;;;;;;;11.50;99.90;;;;;;5088820;28;20031;-63
2022/03/28 03:01:17;;;;;;;;;;;11.50;99.90;;;;;;5090074;28;20007;-63
2022/03/28 03:03:45;;;;;;;;;;;11.40;99.90;;;;;;5090333;28;19963;-62
2022/03/28 03:06:14;;;;;;;;;;;11.40;99.90;;;;;;5071134;28;20016;-63
2022/03/28 03:08:42;;;;;;;;;;;11.50;99.90;;;;;;5090468;28;19947;-63
2022/03/28 03:11:10;;;;;;;;;;;11.50;99.90;;;;;;5090733;28;20304;-62
2022/03/28 03:13:38;;;;;;;;;;;11.50;99.90;;;;;;5088865;28;20023;-63
2022/03/28 03:16:05;;;;;;;;;;;11.30;99.90;;;;;;5088381;28;20215;-62
2022/03/28 03:18:33;;;;;;;;;;;11.60;99.90;;;;;;5089545;28;19931;-62
2022/03/28 03:21:01;;;;;;;;;;;11.60;99.90;;;;;;5089243;28;19924;-62
2022/03/28 03:23:30;;;;;;;;;;;11.60;99.90;;;;;;5086267;28;19967;-63
2022/03/28 03:25:58;;;;;;;;;;;11.60;99.90;;;;;;5087585;28;19931;-63
2022/03/28 03:28:27;;;;;;;;;;;11.70;99.90;;;;;;5091330;28;19960;-63
2022/03/28 03:30:55;;;;;;;;;;;11.50;99.90;;;;;;5088919;28;20596;-63
2022/03/28 03:33:23;;;;;;;;;;;11.40;99.90;;;;;;5089338;28;20051;-62
2022/03/28 03:35:50;;;;;;;;;;;11.50;99.90;;;;;;5088245;28;19970;-62
2022/03/28 03:38:18;;;;;;;;;;;11.60;99.90;;;;;;5091388;28;20362;-63
2022/03/28 03:40:47;;;;;;;;;;;11.50;99.90;;;;;;5088733;28;20364;-63
2022/03/28 03:43:15;;;;;;;;;;;11.30;99.90;;;;;;5088434;28;20022;-63
2022/03/28 03:45:43;;;;;;;;;;;11.20;99.90;;;;;;5094209;28;20014;-63
2022/03/28 03:48:10;;;;;;;;;;;11.20;99.90;;;;;;5088086;28;20033;-63
2022/03/28 03:50:38;;;;;;;;;;;11.10;99.90;;;;;;5090545;28;19928;-62
2022/03/28 03:53:06;;;;;;;;;;;11.20;99.90;;;;;;5089601;28;20022;-62
2022/03/28 03:55:33;;;;;;;;;;;11.10;99.90;;;;;;5086349;28;19974;-62
2022/03/28 03:58:02;;;;;;;;;;;11.10;99.90;;;;;;5093089;28;20375;-61
2022/03/28 04:00:30;;;;;;;;;;;11.20;99.90;;;;;;5088791;28;19960;-62
2022/03/28 04:02:58;;;;;;;;;;;11.20;99.90;;;;;;5091275;28;20255;-62
2022/03/28 04:05:26;;;;;;;;;;;11.20;99.90;;;;;;5092331;28;20005;-61
2022/03/28 04:07:54;;;;;;;;;;;11.30;99.90;;;;;;5093860;28;20022;-63
2022/03/28 04:10:22;;;;;;;;;;;11.30;99.90;;;;;;5093103;28;19970;-62
2022/03/28 04:12:50;;;;;;;;;;;11.30;99.90;;;;;;5090757;28;19967;-63
2022/03/28 04:15:19;;;;;;;;;;;11.40;99.90;;;;;;5093828;28;20007;-62
2022/03/28 04:17:46;;;;;;;;;;;11.40;99.90;;;;;;5092907;28;19967;-62
2022/03/28 04:20:15;;;;;;;;;;;11.50;99.90;;;;;;5092530;28;19939;-62
2022/03/28 04:22:45;;;;;;;;;;;11.50;99.90;;;;;;5090768;28;19989;-62
2022/03/28 04:25:14;;;;;;;;;;;11.50;99.90;;;;;;5085258;28;19928;-63
2022/03/28 04:27:42;;;;;;;;;;;11.50;99.90;;;;;;5093520;28;20022;-63
2022/03/28 04:30:10;;;;;;;;;;;11.60;99.90;;;;;;5091498;28;20416;-63
2022/03/28 04:32:40;;;;;;;;;;;11.50;99.90;;;;;;5087568;28;20419;-63
2022/03/28 04:35:08;;;;;;;;;;;11.60;99.90;;;;;;5093339;28;20080;-62
2022/03/28 04:37:37;;;;;;;;;;;11.60;99.90;;;;;;5082878;28;20418;-62
2022/03/28 04:40:06;;;;;;;;;;;11.60;99.90;;;;;;5090216;28;20015;-62
2022/03/28 04:42:34;;;;;;;;;;;11.60;99.90;;;;;;5090702;28;20031;-62
2022/03/28 04:45:01;;;;;;;;;;;11.50;99.90;;;;;;5091589;28;20377;-62
2022/03/28 04:47:30;;;;;;;;;;;11.50;99.90;;;;;;5092459;28;19932;-62
2022/03/28 04:49:59;;;;;;;;;;;11.50;99.90;;;;;;5088450;28;20457;-62
2022/03/28 04:52:27;;;;;;;;;;;11.50;99.90;;;;;;5088625;28;19946;-62
2022/03/28 04:54:54;;;;;;;;;;;11.60;99.90;;;;;;5085884;28;20043;-63
2022/03/28 04:57:22;;;;;;;;;;;11.50;99.90;;;;;;5087287;28;19962;-63
2022/03/28 04:59:50;;;;;;;;;;;11.50;99.90;;;;;;5091677;28;20381;-62
2022/03/28 05:02:18;;;;;;;;;;;11.50;99.90;;;;;;5091061;28;20024;-62
2022/03/28 05:04:45;;;;;;;;;;;11.50;99.90;;;;;;5089511;28;19928;-62
2022/03/28 05:07:22;;;;;;;;;;;11.40;99.90;;;;;;5092164;28;19955;-63
2022/03/28 05:09:50;;;;;;;;;;;11.40;99.90;;;;;;5090924;28;19947;-62
2022/03/28 05:12:17;;;;;;;;;;;11.40;99.90;;;;;;5092416;28;20011;-63
2022/03/28 05:14:45;;;;;;;;;;;11.50;99.90;;;;;;5067226;28;19950;-63
2022/03/28 05:17:14;;;;;;;;;;;11.50;99.90;;;;;;5059773;28;20024;-63
2022/03/28 05:19:41;;;;;;;;;;;11.50;99.90;;;;;;5067313;28;19928;-63
2022/03/28 05:22:09;;;;;;;;;;;11.50;99.90;;;;;;5061002;28;19936;-63
2022/03/28 05:24:38;;;;;;;;;;;11.60;99.90;;;;;;5061502;28;19936;-63
2022/03/28 05:27:06;;;;;;;;;;;11.70;99.90;;;;;;5062468;28;20047;-63
2022/03/28 05:29:34;;;;;;;;;;;11.70;99.90;;;;;;5061931;28;20023;-62
2022/03/28 05:32:02;;;;;;;;;;;11.70;99.90;;;;;;5063567;28;19932;-64
2022/03/28 05:34:30;;;;;;;;;;;11.70;99.90;;;;;;5060188;28;19929;-63
2022/03/28 05:36:58;;;;;;;;;;;11.70;99.90;;;;;;5067107;28;20043;-63
2022/03/28 05:39:26;;;;;;;;;;;11.70;99.90;;;;;;5062099;28;19933;-63
2022/03/28 05:42:00;;;;;;;;;;;11.70;99.90;;;;;;5061779;28;19932;-63
2022/03/28 05:44:28;;;;;;;;;;;11.60;99.90;;;;;;5046946;28;20768;-63
2022/03/28 05:46:55;;;;;;;;;;;11.70;99.90;;;;;;5062949;28;20046;-62
2022/03/28 05:49:23;;;;;;;;;;;11.70;99.90;;;;;;5062285;28;19932;-62
2022/03/28 05:51:51;;;;;;;;;;;11.70;99.90;;;;;;5061612;28;19939;-62
2022/03/28 05:54:19;;;;;;;;;;;11.80;99.90;;;;;;5059550;28;19976;-62
2022/03/28 05:56:48;;;;;;;;;;;11.80;99.90;;;;;;5058985;28;19932;-62
2022/03/28 05:59:17;;;;;;;;;;;11.90;99.90;;;;;;5066071;28;20342;-63
2022/03/28 06:01:44;;;;;;;;;;;11.80;99.90;;;;;;5060503;28;20027;-63
2022/03/28 06:04:13;;;;;;;;;;;11.90;99.90;;;;;;5078095;28;20005;-64
2022/03/28 06:06:40;;;;;;;;;;;11.90;99.90;;;;;;5087029;28;19920;-63
2022/03/28 06:09:08;;;;;;;;;;;11.90;99.90;;;;;;5084848;28;20018;-63
2022/03/28 06:11:36;;;;;;;;;;;11.80;99.90;;;;;;5086814;28;20349;-64
2022/03/28 06:14:05;;;;;;;;;;;11.90;99.90;;;;;;5089185;28;19924;-64
2022/03/28 06:16:34;;;;;;;;;;;11.80;99.90;;;;;;5090464;28;20015;-66
2022/03/28 06:19:02;;;;;;;;;;;11.70;99.90;;;;;;5087214;28;19935;-65
2022/03/28 06:21:31;;;;;;;;;;;11.80;99.90;;;;;;5090495;28;19955;-65
2022/03/28 06:23:59;;;;;;;;;;;11.90;99.90;;;;;;5073541;28;20459;-65
2022/03/28 06:26:27;;;;;;;;;;;12.10;99.90;;;;;;5092077;28;19931;-65
2022/03/28 06:28:55;;;;;;;;;;;12.20;99.90;;;;;;5091606;28;19935;-65
2022/03/28 06:31:23;;;;;;;;;;;12.30;99.90;;;;;;5092175;28;19931;-67
2022/03/28 06:34:01;;;;;;;;;;;12.50;99.90;;;;;;5086283;28;20427;-65
2022/03/28 06:36:30;;;;;;;;;;;12.60;99.90;;;;;;5090479;28;19931;-65
2022/03/28 06:38:58;;;;;;;;;;;12.70;99.90;;;;;;5091909;28;19924;-65
2022/03/28 06:41:26;;;;;;;;;;;12.90;99.90;;;;;;5091870;28;20351;-63
2022/03/28 06:43:53;;;;;;;;;;;13.00;99.90;;;;;;5091565;28;19924;-65
2022/03/28 06:46:21;;;;;;;;;;;13.00;99.90;;;;;;5091892;28;20407;-64
2022/03/28 06:48:52;;;;;;;;;;;13.00;99.90;;;;;;5073482;28;19924;-65
2022/03/28 06:51:21;;;;;;;;;;;13.10;99.90;;;;;;5073877;28;19928;-64
2022/03/28 06:53:49;;;;;;;;;;;13.10;99.90;;;;;;5091344;28;19935;-65
2022/03/28 06:56:17;;;;;;;;;;;13.20;99.90;;;;;;5091811;28;19925;-65
2022/03/28 06:58:45;;;;;;;;;;;13.20;99.90;;;;;;5091563;28;19931;-64
2022/03/28 07:01:13;;;;;;;;;;;13.30;99.90;;;;;;5091394;28;19925;-64
2022/03/28 07:03:41;;;;;;;;;;;13.30;99.90;;;;;;5071973;28;19977;-63
2022/03/28 07:06:09;;;;;;;;;;;13.30;99.90;;;;;;5071955;28;19924;-64
2022/03/28 07:08:38;;;;;;;;;;;13.20;99.90;;;;;;5091619;28;19924;-65
2022/03/28 07:11:06;;;;;;;;;;;13.10;99.90;;;;;;5091526;28;20369;-66
2022/03/28 07:13:34;;;;;;;;;;;13.20;99.90;;;;;;5073068;28;19935;-65
2022/03/28 07:16:02;;;;;;;;;;;13.20;99.90;;;;;;5091361;28;19924;-65
2022/03/28 07:18:30;;;;;;;;;;;13.30;99.90;;;;;;5095138;28;19931;-64
2022/03/28 07:20:58;;;;;;;;;;;13.50;99.90;;;;;;5095440;28;19924;-65
2022/03/28 07:23:30;;;;;;;;;;;13.60;99.90;;;;;;5076921;28;19924;-65
2022/03/28 07:25:59;;;;;;;;;;;13.80;99.90;;;;;;5095999;28;20035;-65
2022/03/28 07:28:27;;;;;;;;;;;13.90;99.90;;;;;;5095410;28;20415;-65
2022/03/28 07:30:55;;;;;;;;;;;14.20;99.90;;;;;;5095564;28;19924;-65
2022/03/28 07:33:24;;;;;;;;;;;14.20;99.90;;;;;;5076625;28;19924;-62
2022/03/28 07:35:52;;;;;;;;;;;14.20;99.90;;;;;;5089062;28;19960;-63
2022/03/28 07:38:19;;;;;;;;;;;14.30;99.90;;;;;;5077061;28;19924;-63
2022/03/28 07:40:47;;;;;;;;;;;14.50;99.90;;;;;;5095168;28;19939;-63
2022/03/28 07:43:17;;;;;;;;;;;14.60;99.90;;;;;;5076597;28;19927;-63
2022/03/28 07:45:44;;;;;;;;;;;14.70;99.90;;;;;;5095046;28;19997;-64
2022/03/28 07:48:13;;;;;;;;;;;14.90;99.90;;;;;;5076811;28;19924;-63
2022/03/28 07:50:40;;;;;;;;;;;15.00;99.90;;;;;;5095517;28;19924;-63
2022/03/28 07:53:08;;;;;;;;;;;15.10;99.90;;;;;;5094907;28;20385;-62
2022/03/28 07:55:37;;;;;;;;;;;15.40;99.90;;;;;;5094871;28;19935;-63
2022/03/28 07:58:06;;;;;;;;;;;15.50;99.90;;;;;;5076791;28;19946;-65
2022/03/28 08:00:35;;;;;;;;;;;15.50;99.90;;;;;;5094629;28;19930;-63
2022/03/28 08:03:03;;;;;;;;;;;15.50;99.90;;;;;;5094447;28;20385;-63
2022/03/28 08:05:31;;;;;;;;;;;15.50;99.90;;;;;;5091173;28;19935;-63
2022/03/28 08:07:59;;;;;;;;;;;15.50;99.90;;;;;;5094646;28;19931;-63
2022/03/28 08:10:27;;;;;;;;;;;15.70;99.90;;;;;;5094497;28;19931;-63
2022/03/28 08:12:55;;;;;;;;;;;15.80;99.90;;;;;;5094003;28;20385;-63
2022/03/28 08:15:23;;;;;;;;;;;15.50;99.90;;;;;;5094591;28;20393;-64
2022/03/28 08:17:52;;;;;;;;;;;15.60;99.90;;;;;;5094539;28;19924;-63
2022/03/28 08:20:20;;;;;;;;;;;15.80;99.90;;;;;;5094847;28;19924;-63
2022/03/28 08:22:50;;;;;;;;;;;16.10;99.90;;;;;;5094036;28;19930;-63
2022/03/28 08:25:19;;;;;;;;;;;16.20;99.90;;;;;;5076318;28;20308;-63
2022/03/28 08:27:47;;;;;;;;;;;16.50;99.90;;;;;;5076115;28;19931;-63
2022/03/28 08:30:15;;;;;;;;;;;16.50;99.90;;;;;;5075228;28;19924;-63
2022/03/28 08:32:45;;;;;;;;;;;16.60;99.90;;;;;;5075817;28;19935;-63
2022/03/28 08:35:15;;;;;;;;;;;16.70;99.90;;;;;;5083609;28;19968;-64
2022/03/28 08:37:43;;;;;;;;;;;16.80;99.90;;;;;;5093617;28;19925;-63
2022/03/28 08:40:13;;;;;;;;;;;17.00;99.90;;;;;;5075815;28;19924;-64
2022/03/28 08:42:41;;;;;;;;;;;17.10;99.90;;;;;;5093996;28;19924;-63
2022/03/28 08:45:11;;;;;;;;;;;17.00;99.90;;;;;;5093994;28;19969;-64
2022/03/28 08:47:42;;;;;;;;;;;17.00;99.90;;;;;;5093514;28;19935;-64
2022/03/28 08:50:31;;;;;;;;;;;17.20;99.90;;;;;;5090090;28;20381;-63
2022/03/28 08:52:59;;;;;;;;;;;17.50;99.90;;;;;;5075531;28;19931;-61
2022/03/28 08:55:27;;;;;;;;;;;17.70;99.90;;;;;;5093847;28;20018;-64
2022/03/28 08:57:55;;;;;;;;;;;17.60;99.90;;;;;;5093602;28;20303;-64
2022/03/28 09:00:22;;;;;;;;;;;17.70;99.90;;;;;;5093608;28;19924;-64
2022/03/28 09:02:50;;;;;;;;;;;17.80;99.90;;;;;;5075441;28;19924;-63
2022/03/28 09:05:28;;;;;;;;;;;17.90;99.90;;;;;;5088961;28;20402;-64
2022/03/28 09:07:58;;;;;;;;;;;18.10;99.90;;;;;;5093747;28;20084;-63
2022/03/28 09:10:28;;;;;;;;;;;18.20;99.90;;;;;;5075265;28;19925;-63
2022/03/28 09:12:57;;;;;;;;;;;18.20;99.90;;;;;;5075325;28;19924;-63
2022/03/28 09:15:25;;;;;;;;;;;18.20;99.90;;;;;;5093492;28;19932;-64
2022/03/28 09:17:57;;;;;;;;;;;17.90;99.90;;;;;;5093171;28;19928;-63
2022/03/28 09:20:25;;;;;;;;;;;17.80;99.90;;;;;;5093406;28;19931;-63
2022/03/28 09:22:52;;;;;;;;;;;17.60;99.90;;;;;;5074924;28;19928;-63
2022/03/28 09:25:24;;;;;;;;;;;17.60;99.90;;;;;;5093369;28;19950;-63
2022/03/28 09:27:52;;;;;;;;;;;17.80;99.90;;;;;;5093423;28;19928;-64
2022/03/28 09:30:20;;;;;;;;;;;18.10;99.90;;;;;;5093573;28;19982;-64
2022/03/28 09:32:52;;;;;;;;;;;18.50;99.90;;;;;;5092928;28;19924;-64
2022/03/28 09:35:21;;;;;;;;;;;18.50;99.90;;;;;;5091173;28;20322;-62
2022/03/28 09:38:01;;;;;;;;;;;18.70;99.90;;;;;;5092669;28;19974;-64
2022/03/28 09:40:37;;;;;;;;;;;18.60;99.90;;;;;;5087727;28;19924;-65
2022/03/28 09:43:07;;;;;;;;;;;18.70;99.90;;;;;;5092754;28;19924;-64
2022/03/28 09:45:39;;;;;;;;;;;19.20;99.90;;;;;;5074797;28;20400;-64
2022/03/28 09:48:07;;;;;;;;;;;19.90;99.90;;;;;;5092531;28;19928;-63
2022/03/28 09:50:38;;;;;;;;;;;20.30;99.90;;;;;;5092708;28;19927;-64
2022/03/28 09:53:16;;;;;;;;;;;20.70;99.90;;;;;;5092440;28;19928;-63
2022/03/28 09:55:53;;;;;;;;;;;21.00;99.90;;;;;;5092649;28;19935;-63
2022/03/28 09:58:35;;;;;;;;;;;21.30;99.90;;;;;;5092413;28;19924;-63
2022/03/28 10:01:05;;;;;;;;;;;21.70;98.60;;;;;;5092291;28;19931;-64
2022/03/28 10:03:34;;;;;;;;;;;21.30;98.00;;;;;;5092247;28;19944;-63
2022/03/28 10:06:04;;;;;;;;;;;20.80;98.90;;;;;;5086705;28;19924;-63
2022/03/28 10:08:32;;;;;;;;;;;20.70;99.20;;;;;;5092110;28;19928;-63
2022/03/28 10:11:02;;;;;;;;;;;20.80;98.70;;;;;;5092140;28;19924;-63
2022/03/28 10:13:30;;;;;;;;;;;20.50;99.00;;;;;;5092048;28;19977;-63
2022/03/28 10:15:58;;;;;;;;;;;20.80;98.70;;;;;;5092299;28;20023;-62
2022/03/28 10:18:29;;;;;;;;;;;20.70;98.30;;;;;;5091995;28;19970;-63
2022/03/28 10:20:58;;;;;;;;;;;20.90;98.20;;;;;;5074085;28;19932;-62
2022/03/28 10:23:29;;;;;;;;;;;21.20;98.30;;;;;;5091819;28;19935;-65
2022/03/28 10:25:58;;;;;;;;;;;21.40;97.50;;;;;;5092309;28;19924;-63
2022/03/28 10:28:27;;;;;;;;;;;21.60;97.30;;;;;;5091709;28;20011;-65
2022/03/28 10:31:13;;;;;;;;;;;21.20;97.40;;;;;;5092049;28;19924;-64
2022/03/28 10:34:02;;;;;;;;;;;21.40;97.40;;;;;;5069619;28;19928;-63
2022/03/28 10:36:31;;;;;;;;;;;21.40;97.20;;;;;;5091793;28;19969;-63
2022/03/28 10:39:18;;;;;;;;;;;21.10;97.50;;;;;;5073624;28;19925;-63
2022/03/28 10:41:45;;;;;;;;;;;20.90;98.00;;;;;;5091963;28;19931;-62
2022/03/28 10:44:16;;;;;;;;;;;21.30;97.20;;;;;;5091664;28;19977;-64
2022/03/28 10:46:44;;;;;;;;;;;21.10;97.40;;;;;;5092157;28;20360;-63
2022/03/28 10:49:12;;;;;;;;;;;20.90;97.40;;;;;;5091562;28;19937;-63
2022/03/28 10:51:48;;;;;;;;;;;21.20;96.70;;;;;;5091480;28;19924;-63
2022/03/28 10:54:15;;;;;;;;;;;21.10;96.80;;;;;;5091512;28;19931;-65
2022/03/28 10:56:45;;;;;;;;;;;21.40;97.20;;;;;;5091553;28;19931;-63
2022/03/28 10:59:15;;;;;;;;;;;21.30;96.30;;;;;;5091403;28;20372;-64
2022/03/28 11:01:44;;;;;;;;;;;21.60;96.40;;;;;;5091586;28;19924;-63
2022/03/28 11:04:20;;;;;;;;;;;21.60;95.90;;;;;;5081484;28;19951;-63
2022/03/28 11:06:50;;;;;;;;;;;21.40;95.50;;;;;;5091352;28;19928;-63
2022/03/28 11:09:43;;;;;;;;;;;21.40;95.40;;;;;;5091048;28;20423;-63
2022/03/28 11:12:12;;;;;;;;;;;21.80;95.70;;;;;;5073094;28;20418;-64
2022/03/28 11:14:54;;;;;;;;;;;22.20;95.00;;;;;;5073411;28;19931;-64
2022/03/28 11:17:25;;;;;;;;;;;22.70;94.70;;;;;;5091435;28;20429;-64
2022/03/28 11:19:57;;;;;;;;;;;22.70;93.40;;;;;;5073420;28;20297;-64
2022/03/28 11:22:48;;;;;;;;;;;22.40;93.50;;;;;;5091350;28;20022;-64
2022/03/28 11:25:33;;;;;;;;;;;22.50;93.70;;;;;;5091475;28;19924;-64
2022/03/28 11:28:18;;;;;;;;;;;23.20;92.90;;;;;;5091352;28;19924;-64
2022/03/28 11:30:51;;;;;;;;;;;23.30;92.00;;;;;;5091304;28;20308;-64
2022/03/28 11:33:21;;;;;;;;;;;22.90;91.90;;;;;;5067161;28;19947;-64
2022/03/28 11:35:54;;;;;;;;;;;23.40;90.60;;;;;;5087574;28;20022;-64
2022/03/28 11:38:23;;;;;;;;;;;24.20;90.70;;;;;;5091218;28;19935;-64
2022/03/28 11:40:51;;;;;;;;;;;24.70;89.30;;;;;;5073485;28;20313;-64
2022/03/28 11:43:26;;;;;;;;;;;23.80;88.20;;;;;;5091106;28;19978;-63
2022/03/28 11:45:55;;;;;;;;;;;23.40;87.50;;;;;;5073236;28;19947;-63
2022/03/28 11:48:24;;;;;;;;;;;23.20;89.30;;;;;;5091048;28;19928;-64
2022/03/28 11:50:53;;;;;;;;;;;22.80;89.90;;;;;;5091126;28;20064;-65
2022/03/28 11:53:21;;;;;;;;;;;23.10;89.20;;;;;;5090921;28;19928;-63
2022/03/28 11:55:50;;;;;;;;;;;23.40;88.60;;;;;;5091248;28;19935;-64
2022/03/28 11:58:19;;;;;;;;;;;23.20;88.20;;;;;;5073135;28;19932;-63
2022/03/28 12:00:48;;;;;;;;;;;23.30;87.30;;;;;;5090791;28;20381;-63
2022/03/28 12:03:17;;;;;;;;;;;23.70;86.30;;;;;;5090897;28;20023;-64
2022/03/28 12:05:47;;;;;;;;;;;23.90;85.60;;;;;;5092333;28;19963;-64
2022/03/28 12:08:15;;;;;;;;;;;23.80;83.40;;;;;;5076300;28;19928;-64
2022/03/28 12:10:44;;;;;;;;;;;24.00;83.90;;;;;;5094142;28;19931;-64
2022/03/28 12:13:12;;;;;;;;;;;24.30;82.30;;;;;;5095479;28;19931;-64
2022/03/28 12:15:43;;;;;;;;;;;24.00;82.40;;;;;;5094743;28;19931;-63
2022/03/28 12:18:12;;;;;;;;;;;23.60;82.80;;;;;;5094627;28;19924;-62
2022/03/28 12:20:40;;;;;;;;;;;23.50;83.10;;;;;;5076117;28;20412;-63
2022/03/28 12:23:11;;;;;;;;;;;23.40;81.30;;;;;;5094312;28;19928;-64
2022/03/28 12:25:39;;;;;;;;;;;23.70;82.30;;;;;;5076456;28;19934;-64
2022/03/28 12:28:09;;;;;;;;;;;23.70;80.50;;;;;;5076169;28;20289;-63
2022/03/28 12:30:38;;;;;;;;;;;23.80;80.70;;;;;;5094238;28;19931;-64
2022/03/28 12:33:11;;;;;;;;;;;23.80;80.20;;;;;;5075888;28;19970;-64
2022/03/28 12:35:41;;;;;;;;;;;24.00;78.80;;;;;;5089275;28;19977;-64
2022/03/28 12:38:13;;;;;;;;;;;24.40;76.10;;;;;;5094167;28;19924;-64
2022/03/28 12:40:43;;;;;;;;;;;24.30;76.00;;;;;;5094187;28;19924;-64
2022/03/28 12:43:12;;;;;;;;;;;24.90;76.20;;;;;;5093983;28;19931;-64
2022/03/28 12:45:40;;;;;;;;;;;25.60;75.00;;;;;;5093852;28;20384;-64
2022/03/28 12:48:08;;;;;;;;;;;26.30;73.00;;;;;;5093844;28;19931;-65
2022/03/28 12:50:52;;;;;;;;;;;26.10;72.50;;;;;;5075915;28;20393;-64
2022/03/28 12:53:23;;;;;;;;;;;25.70;73.10;;;;;;5093751;28;20343;-64
2022/03/28 12:55:51;;;;;;;;;;;25.20;73.20;;;;;;5093914;28;20384;-63
2022/03/28 12:58:19;;;;;;;;;;;25.00;71.10;;;;;;5093863;28;19928;-64
2022/03/28 13:00:47;;;;;;;;;;;24.70;71.60;;;;;;5093364;28;20486;-64
2022/03/28 13:03:28;;;;;;;;;;;25.50;70.70;;;;;;5093377;28;19962;-64
2022/03/28 13:06:08;;;;;;;;;;;26.10;68.90;;;;;;5091974;28;20304;-65
2022/03/28 13:08:38;;;;;;;;;;;26.40;69.20;;;;;;5075166;28;19924;-65
2022/03/28 13:11:19;;;;;;;;;;;26.50;67.80;;;;;;5093399;28;19928;-64
2022/03/28 13:13:50;;;;;;;;;;;25.70;67.10;;;;;;5087749;28;19924;-62
2022/03/28 13:16:22;;;;;;;;;;;25.60;67.90;;;;;;5093361;28;19924;-64
2022/03/28 13:18:58;;;;;;;;;;;25.30;67.70;;;;;;5093415;28;20450;-63
2022/03/28 13:21:29;;;;;;;;;;;25.00;67.90;;;;;;5093399;28;19928;-64
2022/03/28 13:24:07;;;;;;;;;;;25.10;67.60;;;;;;5074938;28;19935;-63
2022/03/28 13:26:42;;;;;;;;;;;25.10;67.40;;;;;;5093372;28;19925;-64
2022/03/28 13:29:21;;;;;;;;;;;25.00;67.70;;;;;;5092855;28;19925;-63
2022/03/28 13:31:49;;;;;;;;;;;25.80;65.80;;;;;;5086713;28;19924;-64
2022/03/28 13:34:17;;;;;;;;;;;26.10;64.70;;;;;;5080787;28;19929;-64
2022/03/28 13:36:45;;;;;;;;;;;25.60;64.90;;;;;;5086304;28;20392;-64
2022/03/28 13:39:15;;;;;;;;;;;25.20;64.90;;;;;;5086335;28;20305;-63
2022/03/28 13:41:42;;;;;;;;;;;25.10;65.60;;;;;;5086398;28;19924;-63
2022/03/28 13:44:11;;;;;;;;;;;25.00;65.50;;;;;;5086331;28;19924;-64
2022/03/28 13:46:39;;;;;;;;;;;25.00;66.40;;;;;;5086448;28;19935;-63
2022/03/28 13:49:07;;;;;;;;;;;25.50;65.30;;;;;;5086264;28;19977;-63
2022/03/28 13:51:37;;;;;;;;;;;25.10;64.70;;;;;;5086039;28;20014;-63
2022/03/28 13:54:06;;;;;;;;;;;24.70;64.60;;;;;;5068439;28;19981;-62
2022/03/28 13:56:36;;;;;;;;;;;24.70;64.50;;;;;;5074504;28;19928;-64
2022/03/28 13:59:03;;;;;;;;;;;25.20;65.70;;;;;;5092995;28;20023;-63
2022/03/28 14:01:31;;;;;;;;;;;25.80;63.60;;;;;;5070847;28;20404;-64
2022/03/28 14:04:02;;;;;;;;;;;26.20;63.80;;;;;;5069491;28;20559;-64
2022/03/28 14:06:30;;;;;;;;;;;26.30;62.70;;;;;;5072610;28;19925;-64
2022/03/28 14:08:58;;;;;;;;;;;26.60;62.40;;;;;;5072201;28;19932;-64
2022/03/28 14:11:26;;;;;;;;;;;26.40;62.30;;;;;;5071821;28;19932;-64
2022/03/28 14:13:55;;;;;;;;;;;25.90;62.40;;;;;;5071900;28;19925;-64
2022/03/28 14:16:23;;;;;;;;;;;25.60;63.10;;;;;;5072175;28;19925;-64
2022/03/28 14:18:54;;;;;;;;;;;25.20;62.90;;;;;;5071924;28;19963;-64
2022/03/28 14:21:22;;;;;;;;;;;24.90;63.00;;;;;;5072400;28;19932;-64
2022/03/28 14:23:50;;;;;;;;;;;24.70;62.90;;;;;;5071802;28;20061;-64
2022/03/28 14:26:20;;;;;;;;;;;24.40;62.80;;;;;;5071633;28;19931;-63
2022/03/28 14:28:48;;;;;;;;;;;24.50;62.20;;;;;;5071817;28;19925;-64
2022/03/28 14:31:17;;;;;;;;;;;24.60;62.00;;;;;;5071763;28;19925;-64